Maybee, MI (48159)

6:38 AM EDT on July 30, 2016 (GMT -0400)
Bunce Rd | | Change Station

Elev 646 ft 42.00 °N, 83.63 °W | Updated 12 seconds ago

Overcast
Overcast
66.2 °F
Feels Like 66.2 °F
N
0.0
Wind Variable Wind from WNW
Gusts 0.0 mph

Today
High -- | Low -- °F
--% Chance of Precip.
Yesterday
High -- | Low -- °F
Precip. -- in
Pressure 29.93 in
Visibility 10.0 miles
Clouds Scattered Clouds 1800 ft
Scattered Clouds 6000 ft
Overcast 11000 ft
Dew Point 65 °F
Humidity 96%
Rainfall 0.02 in
Snow Depth Not available.
6:26 AM 8:54 PM
Waning Crescent, 14% visible
METAR KTTF 301013Z AUTO 36003KT 10SM SCT018 SCT060 OVC110 19/18 A2993 RMK AO2 T01900181
Pressure 29.93 in
Visibility 10.0 miles
Clouds Scattered Clouds 1800 ft
Scattered Clouds 6000 ft
Overcast 11000 ft
Dew Point 65 °F
Humidity 96%
Rainfall 0.02 in
Snow Depth Not available.
6:26 AM 8:54 PM
Waning Crescent, 14% visible
METAR KTTF 301013Z AUTO 36003KT 10SM SCT018 SCT060 OVC110 19/18 A2993 RMK AO2 T01900181

10-Day Weather Forecast

Almanac

Astronomy

Jul. 30, 2016 Rise Set
Actual Time
Civil Twilight
Nautical Twilight
Astronomical Twilight
Moon
Length of Visible Light
Length of Day
Tomorrow will be .
, % of the Moon is Illuminated

Today's Extremes

State Highs State Lows

Community

WunderPhotos

Upload Photos

1,928,530 photos uploaded!

WunderBlog® & News

Nearby

Air Quality

  Air Quality AQ Index Pollutant
Not available.

Snow Depth

Station Depth Elevation

Earthquake Activity

City Distance Mag. Time & Date
Minimum magnitude displayed is 2.5.

Coastal Water Temperatures

Place Temperature

Stations

Nearby Weather Stations

Station Location Temp. Windchill Dew Point Humidity Wind Precip. Elev Updated Type
                   

Watches & Warnings

There are currently no watches in effect.